createdAt,value
2019-04-26T00:02:06.179Z,15.00
2019-04-26T00:08:12.097Z,14.80
2019-04-26T00:14:20.842Z,14.80
2019-04-26T00:20:25.629Z,14.60
2019-04-26T00:26:30.315Z,14.50
2019-04-26T00:32:34.955Z,14.30
2019-04-26T00:38:39.589Z,14.20
2019-04-26T00:44:45.076Z,14.00
2019-04-26T00:51:23.455Z,13.90
2019-04-26T00:57:30.523Z,13.80
2019-04-26T01:03:35.376Z,13.70
2019-04-26T01:09:39.991Z,13.60
2019-04-26T01:15:44.552Z,13.30
2019-04-26T01:21:53.425Z,13.20
2019-04-26T01:27:58.382Z,13.00
2019-04-26T01:34:02.994Z,12.60
2019-04-26T01:40:10.612Z,12.40
2019-04-26T01:46:19.361Z,12.20
2019-04-26T01:52:25.603Z,12.20
2019-04-26T01:58:31.342Z,12.20
2019-04-26T02:04:40.767Z,12.30
2019-04-26T02:10:45.471Z,12.20
2019-04-26T02:16:50.264Z,12.00
2019-04-26T02:22:59.312Z,11.80
2019-04-26T02:29:11.669Z,11.60
2019-04-26T02:35:16.296Z,11.60
2019-04-26T02:41:20.907Z,11.70
2019-04-26T02:47:55.180Z,11.70
2019-04-26T02:54:10.514Z,11.50
2019-04-26T03:00:19.054Z,11.50
2019-04-26T03:06:24.335Z,11.50
2019-04-26T03:12:34.421Z,11.60
2019-04-26T03:18:51.905Z,11.70
2019-04-26T03:25:10.099Z,11.60
2019-04-26T03:31:22.434Z,11.20
2019-04-26T03:38:09.102Z,11.00
2019-04-26T03:44:26.976Z,10.70
2019-04-26T03:50:42.882Z,10.50
2019-04-26T03:57:15.036Z,10.40
2019-04-26T04:03:41.626Z,10.20
2019-04-26T04:09:49.315Z,10.10
2019-04-26T04:15:54.574Z,10.20
2019-04-26T04:22:21.157Z,10.10
2019-04-26T04:29:20.253Z,10.30
2019-04-26T04:35:27.854Z,10.40
2019-04-26T04:42:04.339Z,10.60
2019-04-26T04:48:26.072Z,10.80
2019-04-26T04:55:06.412Z,10.80
2019-04-26T05:01:11.820Z,10.90
2019-04-26T05:07:35.925Z,10.90
2019-04-26T05:13:50.352Z,11.10
2019-04-26T05:20:11.817Z,11.30
2019-04-26T05:26:40.740Z,11.50
2019-04-26T05:33:07.758Z,11.70
2019-04-26T05:39:28.963Z,12.10
2019-04-26T05:46:26.665Z,12.00
2019-04-26T05:53:15.389Z,12.20
2019-04-26T05:59:42.584Z,12.40
2019-04-26T06:06:13.968Z,12.60
2019-04-26T06:12:47.125Z,12.90
2019-04-26T06:19:21.278Z,12.90
2019-04-26T06:25:49.518Z,13.00
2019-04-26T06:32:07.734Z,13.40
2019-04-26T06:38:43.482Z,13.70
2019-04-26T06:45:30.960Z,14.30
2019-04-26T06:51:51.823Z,14.80
2019-04-26T06:58:20.581Z,14.50
2019-04-26T07:04:47.746Z,14.60
2019-04-26T07:11:07.510Z,14.60
2019-04-26T07:17:41.011Z,14.80
2019-04-26T07:24:15.308Z,14.60
2019-04-26T07:30:42.137Z,14.50
2019-04-26T07:37:22.714Z,14.50
2019-04-26T07:43:56.322Z,14.80
2019-04-26T07:50:25.246Z,15.40
2019-04-26T07:56:55.622Z,15.40
2019-04-26T08:03:26.300Z,15.20
2019-04-26T08:09:33.977Z,16.00
2019-04-26T08:15:52.123Z,16.50
2019-04-26T08:22:11.606Z,16.30
2019-04-26T08:28:09.972Z,15.80
2019-04-26T08:34:21.131Z,16.00
2019-04-26T08:40:30.997Z,15.20
2019-04-26T08:46:38.883Z,14.80
2019-04-26T08:52:46.275Z,14.90
2019-04-26T08:58:55.713Z,14.50
2019-04-26T09:05:08.951Z,14.40
2019-04-26T09:11:25.543Z,14.70
2019-04-26T09:17:21.804Z,14.90
2019-04-26T09:23:40.230Z,14.70
2019-04-26T09:29:47.451Z,14.50
2019-04-26T09:35:52.158Z,14.20
2019-04-26T09:42:14.602Z,14.20
2019-04-26T09:48:26.666Z,14.30
2019-04-26T09:54:31.291Z,14.20
2019-04-26T10:00:35.990Z,14.00
2019-04-26T10:06:40.714Z,14.00
2019-04-26T10:12:49.980Z,14.30
2019-04-26T10:18:58.259Z,14.60
2019-04-26T10:25:07.755Z,14.70
2019-04-26T10:31:08.978Z,14.60
2019-04-26T10:37:13.555Z,14.50
2019-04-26T10:43:18.258Z,14.10
2019-04-26T10:49:43.697Z,14.10
2019-04-26T10:55:56.052Z,14.30
2019-04-26T11:02:00.670Z,14.40
2019-04-26T11:08:06.076Z,14.70
2019-04-26T11:14:10.719Z,14.90
2019-04-26T11:20:15.473Z,14.70
2019-04-26T11:26:20.023Z,14.50
2019-04-26T11:32:24.649Z,14.50
2019-04-26T11:38:31.226Z,14.40
2019-04-26T11:44:35.462Z,14.50
2019-04-26T11:50:40.011Z,14.30
2019-04-26T11:56:44.570Z,14.00
2019-04-26T12:02:50.802Z,14.00
2019-04-26T12:08:57.197Z,13.60
2019-04-26T12:15:03.967Z,13.60
2019-04-26T12:21:08.153Z,13.60
2019-04-26T12:27:12.771Z,13.40
2019-04-26T12:33:17.487Z,13.20
2019-04-26T12:39:22.654Z,13.30
2019-04-26T12:45:28.860Z,13.30
2019-04-26T12:51:35.131Z,13.40
2019-04-26T12:57:40.877Z,13.30
2019-04-26T13:03:47.663Z,13.10
2019-04-26T13:10:10.249Z,12.90
2019-04-26T13:16:26.368Z,12.80
2019-04-26T13:22:28.433Z,12.60
2019-04-26T13:28:33.023Z,12.20
2019-04-26T13:34:38.367Z,12.20
2019-04-26T13:40:43.074Z,12.20
2019-04-26T13:47:03.739Z,12.10
2019-04-26T13:53:07.845Z,11.80
2019-04-26T13:59:12.640Z,11.60
2019-04-26T14:05:17.190Z,11.40
2019-04-26T14:11:28.091Z,11.30
2019-04-26T14:17:29.735Z,11.30
2019-04-26T14:23:49.468Z,11.00
2019-04-26T14:29:54.488Z,10.90
2019-04-26T14:35:59.104Z,10.80
2019-04-26T14:42:03.850Z,10.70
2019-04-26T14:48:25.206Z,10.60
2019-04-26T14:54:14.714Z,10.60
2019-04-26T15:00:22.276Z,10.60
2019-04-26T15:06:28.658Z,10.60
2019-04-26T15:12:45.710Z,10.60
2019-04-26T15:18:39.594Z,10.70
2019-04-26T15:24:44.151Z,10.70
2019-04-26T15:30:48.709Z,10.80
2019-04-26T15:36:54.262Z,10.80
2019-04-26T15:43:14.254Z,10.70
2019-04-26T15:49:12.596Z,10.80
2019-04-26T15:55:17.302Z,10.80
2019-04-26T16:01:21.841Z,10.80
2019-04-26T16:07:28.865Z,10.80
2019-04-26T16:13:32.748Z,10.80
2019-04-26T16:19:37.307Z,10.90
2019-04-26T16:25:42.831Z,10.90
2019-04-26T16:31:49.143Z,10.80
2019-04-26T16:37:53.922Z,10.80
2019-04-26T16:43:58.479Z,10.80
2019-04-26T16:50:03.717Z,10.70
2019-04-26T16:56:08.476Z,10.70
2019-04-26T17:02:20.940Z,10.80
2019-04-26T17:08:19.477Z,10.70
2019-04-26T17:14:24.599Z,10.70
2019-04-26T17:20:29.337Z,10.70
2019-04-26T17:26:36.511Z,10.60
2019-04-26T17:32:42.188Z,10.40
2019-04-26T17:38:47.791Z,10.30
2019-04-26T17:44:52.352Z,10.20
2019-04-26T17:50:56.969Z,10.20
2019-04-26T17:57:04.395Z,10.20
2019-04-26T18:03:13.229Z,10.30
2019-04-26T18:09:38.050Z,10.30
2019-04-26T18:15:21.013Z,10.30
2019-04-26T18:21:39.367Z,10.20
2019-04-26T18:27:43.919Z,10.30
2019-04-26T18:33:48.549Z,10.40
2019-04-26T18:39:53.500Z,10.30
2019-04-26T18:46:03.388Z,10.30
2019-04-26T18:52:08.789Z,10.30
2019-04-26T18:58:13.522Z,10.30
2019-04-26T19:04:18.389Z,10.30
2019-04-26T19:10:25.694Z,10.20
2019-04-26T19:16:35.768Z,10.10
2019-04-26T19:22:41.969Z,10.10
2019-04-26T19:28:46.525Z,10.10
2019-04-26T19:34:52.462Z,10.00
2019-04-26T19:40:57.117Z,10.10
2019-04-26T19:47:15.424Z,10.00
2019-04-26T19:53:24.943Z,10.00
2019-04-26T19:59:33.253Z,9.90
2019-04-26T20:05:36.361Z,9.90
2019-04-26T20:11:42.354Z,9.90
2019-04-26T20:17:52.391Z,9.90
2019-04-26T20:23:54.528Z,10.00
2019-04-26T20:29:59.397Z,10.00
2019-04-26T20:36:04.897Z,10.00
2019-04-26T20:42:09.594Z,10.10
2019-04-26T20:48:14.210Z,10.10
2019-04-26T20:54:18.779Z,10.10
2019-04-26T21:00:24.347Z,10.20
2019-04-26T21:06:33.008Z,10.10
2019-04-26T21:12:35.274Z,10.10
2019-04-26T21:18:41.913Z,10.10
2019-04-26T21:24:50.731Z,10.20
2019-04-26T21:31:09.165Z,10.20
2019-04-26T21:37:20.510Z,10.20
2019-04-26T21:43:23.171Z,10.20
2019-04-26T21:49:28.670Z,10.10
2019-04-26T21:55:38.364Z,10.10
2019-04-26T22:01:39.511Z,10.10
2019-04-26T22:07:47.658Z,10.10
2019-04-26T22:14:07.040Z,10.10
2019-04-26T22:20:15.621Z,10.10
2019-04-26T22:26:17.970Z,10.10
2019-04-26T22:32:22.966Z,10.00
2019-04-26T22:38:27.708Z,10.00
2019-04-26T22:44:43.679Z,10.00
2019-04-26T22:50:53.694Z,10.10
2019-04-26T22:56:54.743Z,10.10
2019-04-26T23:03:03.678Z,10.10
2019-04-26T23:09:11.491Z,10.00
2019-04-26T23:15:16.683Z,10.10
2019-04-26T23:21:24.896Z,10.00
2019-04-26T23:27:29.567Z,9.90
2019-04-26T23:33:34.117Z,9.90
2019-04-26T23:39:38.722Z,9.90
2019-04-26T23:45:48.290Z,9.90
2019-04-26T23:51:53.219Z,9.90
2019-04-26T23:57:57.641Z,10.00
